Time;durP1;ratioP1;P1;durP2;ratioP2;P2;SDS_P1;SDS_P2;PMS_P1;PMS_P2;Temp;Humidity;BMP_temperature;BMP_pressure;BME280_temperature;BME280_humidity;BME280_pressure;Samples;Min_cycle;Max_cycle;Signal;HPM_P1;HPM_P2
2022/10/23 00:00:36;;;;;;;20.13;13.13;;;;;;;13.90;83.86;94988.16;5071635;28;20209;-62
2022/10/23 00:03:01;;;;;;;21.10;12.05;;;;;;;13.92;82.72;95009.28;5071135;28;20196;-63
2022/10/23 00:05:28;;;;;;;20.77;11.38;;;;;;;13.90;82.82;95006.88;5071408;28;20205;-63
2022/10/23 00:07:57;;;;;;;18.63;11.40;;;;;;;13.95;81.93;95021.78;5059417;23;20224;-64
2022/10/23 00:10:24;;;;;;;22.70;11.48;;;;;;;13.86;81.27;95020.06;5071198;28;20234;-63
2022/10/23 00:12:50;;;;;;;19.23;11.15;;;;;;;14.00;80.80;95030.66;5069581;28;20224;-63
2022/10/23 00:15:18;;;;;;;16.43;9.80;;;;;;;13.93;80.37;95031.34;5071197;28;20269;-61
2022/10/23 00:17:43;;;;;;;20.93;12.23;;;;;;;14.00;80.90;95022.97;5071766;28;20279;-61
2022/10/23 00:20:10;;;;;;;18.38;10.27;;;;;;;13.94;80.07;95028.66;5053168;28;20239;-63
2022/10/23 00:22:36;;;;;;;18.67;11.03;;;;;;;13.94;80.71;95023.53;5070721;28;20201;-64
2022/10/23 00:25:06;;;;;;;18.87;10.80;;;;;;;14.04;79.85;95033.72;5069896;28;20208;-61
2022/10/23 00:27:32;;;;;;;18.05;9.75;;;;;;;14.04;78.90;95031.16;5070055;28;20227;-64
2022/10/23 00:29:57;;;;;;;13.50;9.80;;;;;;;14.18;77.75;95043.50;5070965;28;20208;-60
2022/10/23 00:32:22;;;;;;;16.88;10.43;;;;;;;14.02;78.22;95041.53;5070647;28;20248;-60
2022/10/23 00:34:48;;;;;;;17.30;10.40;;;;;;;13.93;80.28;95008.34;5071211;28;20669;-60
2022/10/23 00:37:13;;;;;;;17.88;10.77;;;;;;;13.97;81.74;94982.38;5071484;28;20229;-62
2022/10/23 00:39:39;;;;;;;16.35;10.32;;;;;;;13.92;82.85;94978.59;5070424;28;20670;-61
2022/10/23 00:42:05;;;;;;;16.63;10.20;;;;;;;14.04;82.15;94990.25;5071048;28;20189;-60
2022/10/23 00:44:30;;;;;;;21.00;10.82;;;;;;;14.05;81.87;94981.66;5071028;28;20258;-59
2022/10/23 00:46:57;;;;;;;19.45;11.70;;;;;;;13.99;81.92;94979.66;5070740;28;20522;-59
2022/10/23 00:49:24;;;;;;;15.80;10.07;;;;;;;14.02;82.65;94971.69;5070748;28;20204;-64
2022/10/23 00:51:56;;;;;;;16.03;10.60;;;;;;;14.10;82.32;94959.00;5070979;28;20197;-64
2022/10/23 00:54:26;;;;;;;17.85;9.85;;;;;;;14.08;82.19;94960.91;5070338;28;20236;-64
2022/10/23 00:57:00;;;;;;;20.30;10.82;;;;;;;14.22;81.81;94974.00;5074034;28;20576;-62
2022/10/23 00:59:26;;;;;;;18.90;11.17;;;;;;;14.24;79.44;95020.69;5074242;28;20196;-64
2022/10/23 01:01:51;;;;;;;18.10;11.07;;;;;;;14.02;80.79;94984.47;5074471;28;20205;-62
2022/10/23 01:04:17;;;;;;;16.85;9.70;;;;;;;14.03;80.04;95011.66;5074656;28;20573;-63
2022/10/23 01:06:53;;;;;;;14.75;9.60;;;;;;;13.86;80.79;95010.66;5055916;28;20200;-62
2022/10/23 01:09:36;;;;;;;20.10;11.10;;;;;;;13.66;85.68;94934.22;5074054;28;20200;-62
2022/10/23 01:12:12;;;;;;;20.10;11.63;;;;;;;13.84;82.86;94966.56;5074294;28;20277;-62
2022/10/23 01:14:45;;;;;;;21.73;11.47;;;;;;;13.59;83.97;94949.31;5072675;28;20212;-60
2022/10/23 01:17:32;;;;;;;22.90;13.23;;;;;;;13.27;87.58;94898.63;5074245;28;20188;-61
2022/10/23 01:19:57;;;;;;;20.53;15.50;;;;;;;12.83;89.58;94889.06;5073786;28;20209;-63
2022/10/23 01:23:03;;;;;;;24.97;16.57;;;;;;;12.78;91.14;94890.41;5073871;28;20288;-62
2022/10/23 01:25:52;;;;;;;25.03;16.53;;;;;;;12.84;88.18;94935.78;5073750;28;20200;-61
2022/10/23 01:28:53;;;;;;;27.20;15.70;;;;;;;12.67;88.97;94934.72;5073589;28;20193;-60
2022/10/23 01:31:32;;;;;;;24.23;14.90;;;;;;;12.35;91.03;94914.63;5056107;28;20204;-64
2022/10/23 01:34:15;;;;;;;21.03;14.77;;;;;;;12.09;92.31;94915.25;5073850;28;20220;-62
2022/10/23 01:36:43;;;;;;;24.53;15.83;;;;;;;11.94;93.42;94929.34;5072599;28;20646;-63
2022/10/23 01:39:15;;;;;;;23.03;15.23;;;;;;;11.94;94.04;94939.53;5056691;28;20612;-61
2022/10/23 01:41:49;;;;;;;20.13;14.50;;;;;;;12.13;92.63;94973.47;5073480;28;20266;-60
2022/10/23 01:44:32;;;;;;;20.47;13.50;;;;;;;12.01;93.04;94955.88;5055318;28;20698;-61
2022/10/23 01:47:00;;;;;;;26.87;14.40;;;;;;;11.88;94.02;94957.88;5056079;28;20291;-61
2022/10/23 01:49:25;;;;;;;21.40;15.57;;;;;;;11.73;94.83;94955.69;5073449;28;20217;-63
2022/10/23 01:51:55;;;;;;;22.07;14.33;;;;;;;11.59;96.35;94960.28;5074231;28;20223;-60
2022/10/23 01:54:25;;;;;;;22.97;15.13;;;;;;;11.59;96.46;94955.19;5073425;28;20219;-61
2022/10/23 01:56:52;;;;;;;18.63;13.70;;;;;;;11.62;96.01;94952.38;5055934;28;20197;-62
2022/10/23 01:59:26;;;;;;;19.60;13.87;;;;;;;11.51;96.82;94947.41;5073190;28;20231;-61
2022/10/23 02:01:55;;;;;;;19.10;13.90;;;;;;;11.47;97.18;94944.28;5073837;28;20193;-60
2022/10/23 02:04:26;;;;;;;21.57;14.83;;;;;;;11.50;97.37;94950.88;5073902;28;20232;-60
2022/10/23 02:06:52;;;;;;;23.37;14.13;;;;;;;11.68;96.68;94972.28;5073226;28;20200;-60
2022/10/23 02:09:17;;;;;;;25.73;14.13;;;;;;;11.72;96.77;94973.63;5072880;28;20211;-61
2022/10/23 02:12:07;;;;;;;18.00;12.93;;;;;;;11.88;96.59;94988.44;5055294;28;20188;-59
2022/10/23 02:14:39;;;;;;;22.93;12.77;;;;;;;11.93;97.21;94974.38;5063897;28;20705;-62
2022/10/23 02:17:33;;;;;;;17.13;12.50;;;;;;;12.12;95.71;94982.06;5073808;28;20204;-60
2022/10/23 02:20:15;;;;;;;20.30;13.30;;;;;;;12.25;94.41;94999.66;5029434;28;20221;-64
2022/10/23 02:22:49;;;;;;;29.70;14.07;;;;;;;12.21;93.19;95000.84;5074235;28;20184;-62
2022/10/23 02:25:24;;;;;;;18.77;13.13;;;;;;;12.34;91.56;95014.19;5073140;28;20691;-63
2022/10/23 02:27:54;;;;;;;24.60;14.03;;;;;;;12.24;92.53;94998.06;5072965;28;20668;-61
2022/10/23 02:30:20;;;;;;;21.93;14.33;;;;;;;12.22;92.64;95003.25;5054820;28;20270;-62
2022/10/23 02:32:49;;;;;;;22.77;12.00;;;;;;;12.35;92.22;95016.59;5072798;28;20221;-60
2022/10/23 02:35:16;;;;;;;20.60;12.50;;;;;;;12.27;92.73;95000.31;5072915;28;20282;-62
2022/10/23 02:37:42;;;;;;;18.50;12.17;;;;;;;12.13;94.69;94985.41;5072572;28;20215;-62
2022/10/23 02:40:08;;;;;;;20.57;12.07;;;;;;;12.20;93.73;94997.50;5072038;28;20205;-61
2022/10/23 02:42:51;;;;;;;19.00;12.67;;;;;;;12.17;94.06;95007.16;5055062;28;20201;-61
2022/10/23 02:45:27;;;;;;;26.73;13.07;;;;;;;12.23;92.86;95020.19;5072718;28;20204;-61
2022/10/23 02:48:00;;;;;;;19.20;11.90;;;;;;;12.32;92.63;95031.34;5072124;28;20223;-64
2022/10/23 02:50:50;;;;;;;26.27;13.03;;;;;;;12.32;92.44;95032.13;5072665;28;20235;-60
2022/10/23 02:53:15;;;;;;;22.10;13.03;;;;;;;12.33;91.67;95038.03;5072943;28;20623;-64
2022/10/23 02:55:51;;;;;;;18.60;12.30;;;;;;;12.36;92.27;95027.59;5072613;28;20247;-61
2022/10/23 02:58:25;;;;;;;16.27;10.90;;;;;;;12.56;91.88;95026.69;5071106;28;20202;-60
2022/10/23 03:00:56;;;;;;;21.10;11.73;;;;;;;12.67;92.31;95021.44;5072588;28;20590;-62
2022/10/23 03:03:28;;;;;;;20.93;11.70;;;;;;;12.72;91.74;95028.72;5072706;28;20633;-61
2022/10/23 03:05:54;;;;;;;17.83;11.67;;;;;;;12.72;90.28;95046.56;5072285;28;20272;-61
2022/10/23 03:08:20;;;;;;;18.10;11.87;;;;;;;12.47;92.51;95015.53;5072443;28;20272;-60
2022/10/23 03:10:45;;;;;;;19.17;11.47;;;;;;;12.57;92.33;95036.75;5072083;28;20238;-61
2022/10/23 03:13:11;;;;;;;22.37;11.93;;;;;;;12.67;91.81;95052.06;5072209;28;20944;-62
2022/10/23 03:15:36;;;;;;;15.70;10.93;;;;;;;12.81;90.38;95072.09;5072229;28;20585;-62
2022/10/23 03:18:02;;;;;;;18.90;12.07;;;;;;;12.91;89.00;95093.31;5071941;28;20662;-63
2022/10/23 03:20:27;;;;;;;19.37;9.70;;;;;;;13.05;86.82;95125.34;5072272;28;20205;-61
2022/10/23 03:22:52;;;;;;;19.77;11.63;;;;;;;13.16;87.02;95128.56;5072339;28;20185;-61
2022/10/23 03:25:18;;;;;;;22.20;11.73;;;;;;;13.32;86.98;95121.16;5072392;28;20690;-60
2022/10/23 03:27:43;;;;;;;17.80;11.00;;;;;;;13.30;86.39;95132.47;5071818;28;20196;-60
2022/10/23 03:30:09;;;;;;;23.73;12.68;;;;;;;13.11;87.87;95107.72;5071752;28;20216;-61
2022/10/23 03:32:34;;;;;;;20.20;11.00;;;;;;;13.04;88.03;95104.09;5071658;28;20790;-62
2022/10/23 03:35:00;;;;;;;18.25;11.63;;;;;;;12.98;87.74;95107.16;5071390;28;20782;-62
2022/10/23 03:37:25;;;;;;;20.15;10.73;;;;;;;13.12;86.43;95123.84;5072665;28;20203;-62
2022/10/23 03:39:51;;;;;;;20.40;10.32;;;;;;;13.23;84.66;95155.16;5071725;28;20219;-63
2022/10/23 03:42:16;;;;;;;13.27;9.52;;;;;;;13.34;83.19;95174.66;5072158;28;20188;-63
2022/10/23 03:44:42;;;;;;;19.63;11.17;;;;;;;13.25;84.86;95139.72;5053583;28;20216;-64
2022/10/23 03:47:10;;;;;;;13.27;9.82;;;;;;;13.37;83.85;95167.53;5053633;28;20200;-60
2022/10/23 03:49:36;;;;;;;13.87;8.27;;;;;;;13.32;82.01;95185.00;5053583;28;20232;-64
2022/10/23 03:52:01;;;;;;;19.27;9.32;;;;;;;13.53;81.07;95197.66;5053489;28;20539;-63
2022/10/23 03:54:28;;;;;;;17.58;10.18;;;;;;;13.52;82.33;95182.44;5071204;28;20292;-63
2022/10/23 03:56:54;;;;;;;16.88;8.27;;;;;;;13.61;79.12;95238.69;5070306;28;20743;-64
2022/10/23 03:59:19;;;;;;;15.63;8.52;;;;;;;13.74;77.72;95263.94;5071272;28;20303;-63
2022/10/23 04:01:45;;;;;;;11.82;7.57;;;;;;;13.79;76.41;95277.97;5071597;28;20246;-62
2022/10/23 04:04:11;;;;;;;19.45;8.18;;;;;;;13.79;76.84;95274.59;5071149;28;20596;-64
2022/10/23 04:06:37;;;;;;;15.75;9.00;;;;;;;13.77;76.84;95268.81;5071987;28;20203;-61
2022/10/23 04:09:04;;;;;;;13.43;7.73;;;;;;;13.87;75.26;95295.97;5070602;23;20218;-62
2022/10/23 04:11:29;;;;;;;13.40;8.23;;;;;;;13.87;74.09;95305.41;5031011;28;20194;-62
2022/10/23 04:14:01;;;;;;;15.90;7.60;;;;;;;13.79;75.12;95285.63;5030950;28;20286;-60
2022/10/23 04:16:27;;;;;;;14.50;7.93;;;;;;;13.81;74.33;95295.72;5031471;28;20218;-60
2022/10/23 04:18:52;;;;;;;14.77;7.60;;;;;;;13.86;73.78;95314.81;5031372;28;20252;-60
2022/10/23 04:21:18;;;;;;;13.20;6.63;;;;;;;13.93;72.95;95322.75;5031367;28;20186;-60
2022/10/23 04:23:43;;;;;;;15.53;7.17;;;;;;;13.94;72.90;95324.34;5029687;28;20229;-61
2022/10/23 04:26:10;;;;;;;10.33;6.23;;;;;;;13.93;73.25;95315.09;5030961;28;20222;-60
2022/10/23 04:28:35;;;;;;;14.23;6.30;;;;;;;14.00;74.37;95299.06;5030978;28;20190;-60
2022/10/23 04:31:01;;;;;;;12.90;7.20;;;;;;;14.09;73.39;95316.16;5029679;28;20248;-60
2022/10/23 04:33:26;;;;;;;10.52;7.57;;;;;;;14.10;73.04;95327.19;5031307;28;20206;-63
2022/10/23 04:35:52;;;;;;;10.90;6.78;;;;;;;14.17;72.61;95335.94;5013177;28;20276;-63
2022/10/23 04:38:17;;;;;;;12.20;6.70;;;;;;;14.18;72.67;95327.34;5030947;28;20198;-64
2022/10/23 04:40:43;;;;;;;18.60;7.80;;;;;;;14.30;71.13;95344.19;5012873;28;20287;-63
2022/10/23 04:43:08;;;;;;;12.25;6.63;;;;;;;14.32;71.62;95326.97;5030637;28;20182;-64
2022/10/23 04:45:34;;;;;;;12.40;6.60;;;;;;;14.41;70.67;95351.72;5030845;28;20201;-60
2022/10/23 04:47:59;;;;;;;14.13;7.20;;;;;;;14.32;71.09;95337.19;5031351;28;20676;-62
2022/10/23 04:50:24;;;;;;;10.40;6.07;;;;;;;14.40;71.55;95336.50;5031442;28;20206;-63
2022/10/23 04:52:54;;;;;;;9.95;6.10;;;;;;;14.40;70.97;95349.31;5030810;28;20182;-63
2022/10/23 04:55:20;;;;;;;13.10;6.70;;;;;;;14.37;71.57;95331.66;5031009;28;20226;-61
2022/10/23 04:57:45;;;;;;;10.43;5.97;;;;;;;14.47;70.19;95363.97;5031480;28;20209;-59
2022/10/23 05:00:13;;;;;;;11.95;6.60;;;;;;;14.45;70.62;95352.25;5029406;28;20225;-62
2022/10/23 05:02:39;;;;;;;9.80;5.78;;;;;;;14.48;70.80;95347.69;5030742;28;20648;-62
2022/10/23 05:05:06;;;;;;;10.45;6.13;;;;;;;14.48;70.30;95357.91;5030544;28;20217;-62
2022/10/23 05:07:31;;;;;;;10.77;6.25;;;;;;;14.54;70.27;95357.38;5029099;28;20676;-61
2022/10/23 05:09:57;;;;;;;13.95;6.80;;;;;;;14.46;70.60;95346.19;5030941;28;20257;-62
2022/10/23 05:12:24;;;;;;;17.65;7.25;;;;;;;14.45;71.09;95339.44;5030405;28;20197;-62
2022/10/23 05:14:49;;;;;;;11.38;6.88;;;;;;;14.44;70.63;95346.34;5030470;28;20221;-62
2022/10/23 05:17:22;;;;;;;14.32;6.63;;;;;;;14.34;71.05;95335.31;5030670;28;20570;-63
2022/10/23 05:19:52;;;;;;;14.45;6.35;;;;;;;14.23;71.70;95323.44;5030667;28;20225;-62
2022/10/23 05:22:20;;;;;;;11.45;6.22;;;;;;;14.25;69.91;95366.78;5030269;28;20217;-63
2022/10/23 05:24:45;;;;;;;11.25;5.03;;;;;;;14.26;68.86;95381.97;5030232;28;20213;-60
2022/10/23 05:27:11;;;;;;;10.57;5.53;;;;;;;14.15;69.93;95350.63;5030141;28;20194;-60
2022/10/23 05:29:36;;;;;;;10.05;6.07;;;;;;;14.21;69.87;95358.56;5012063;28;20732;-60
2022/10/23 05:32:05;;;;;;;11.98;5.55;;;;;;;14.30;70.31;95354.44;5030373;28;20251;-60
2022/10/23 05:34:33;;;;;;;12.40;7.00;;;;;;;14.24;70.83;95353.16;5030458;28;20576;-62
2022/10/23 05:37:00;;;;;;;12.23;7.38;;;;;;;14.22;71.17;95337.16;5030246;28;20198;-64
2022/10/23 05:39:26;;;;;;;11.55;5.80;;;;;;;14.39;70.66;95350.22;5030318;28;20264;-60
2022/10/23 05:41:51;;;;;;;9.33;5.00;;;;;;;14.56;70.69;95368.28;5031373;28;20190;-60
2022/10/23 05:44:17;;;;;;;10.95;6.05;;;;;;;14.64;70.66;95383.75;5033440;28;20220;-60
2022/10/23 05:46:42;;;;;;;11.50;6.75;;;;;;;14.78;71.70;95367.97;5033543;28;20182;-61
2022/10/23 05:49:08;;;;;;;18.65;8.70;;;;;;;14.70;72.81;95339.69;5033525;28;20284;-64
2022/10/23 05:51:39;;;;;;;30.50;10.02;;;;;;;14.39;74.19;95311.84;5033722;28;20193;-60
2022/10/23 05:54:07;;;;;;;16.13;10.63;;;;;;;14.11;76.89;95262.34;5034138;28;20285;-63
2022/10/23 05:56:34;;;;;;;21.95;11.57;;;;;;;13.90;78.28;95251.44;5015415;28;20277;-64
2022/10/23 05:58:59;;;;;;;21.98;10.38;;;;;;;14.04;77.43;95267.19;5033315;28;20221;-61
2022/10/23 06:01:25;;;;;;;22.92;11.82;;;;;;;13.93;78.90;95243.50;5033035;28;20668;-61
2022/10/23 06:03:50;;;;;;;25.75;14.23;;;;;;;14.01;79.81;95231.66;5033218;28;20551;-60
2022/10/23 06:06:16;;;;;;;28.17;12.63;;;;;;;14.01;78.22;95270.00;5033039;28;20226;-60
2022/10/23 06:08:41;;;;;;;14.75;7.53;;;;;;;14.06;77.31;95284.94;5033267;28;20213;-62
2022/10/23 06:11:09;;;;;;;15.07;7.68;;;;;;;14.20;77.15;95298.13;5033003;28;20556;-60
2022/10/23 06:13:34;;;;;;;11.97;7.70;;;;;;;14.47;76.54;95310.25;5033268;28;20216;-61
2022/10/23 06:16:10;;;;;;;12.97;7.07;;;;;;;14.60;77.34;95307.41;5032824;28;20190;-60
2022/10/23 06:18:36;;;;;;;11.88;6.68;;;;;;;14.67;77.35;95311.00;5033256;28;20256;-61
2022/10/23 06:21:02;;;;;;;18.92;7.03;;;;;;;14.82;78.60;95277.16;5033259;28;20193;-62
2022/10/23 06:23:30;;;;;;;11.65;7.22;;;;;;;14.87;78.68;95282.66;5033055;28;20201;-61
2022/10/23 06:25:55;;;;;;;19.13;7.55;;;;;;;14.89;78.96;95269.69;5032821;28;20197;-61
2022/10/23 06:28:21;;;;;;;11.60;6.33;;;;;;;14.89;78.80;95275.63;5032807;28;20194;-64
2022/10/23 06:30:47;;;;;;;11.55;6.55;;;;;;;15.00;80.24;95243.94;5032793;28;20766;-62
2022/10/23 06:33:12;;;;;;;13.73;7.05;;;;;;;15.03;80.46;95235.94;5032925;28;20216;-63
2022/10/23 06:35:38;;;;;;;8.80;6.47;;;;;;;15.10;81.68;95222.47;5032593;28;20210;-61
2022/10/23 06:38:03;;;;;;;9.70;5.93;;;;;;;15.26;82.64;95203.88;5033060;28;20198;-59
2022/10/23 06:40:29;;;;;;;10.93;5.88;;;;;;;15.29;85.47;95154.13;5033333;28;20206;-60
2022/10/23 06:42:55;;;;;;;9.63;5.53;;;;;;;15.37;88.09;95126.78;5033861;28;20251;-65
2022/10/23 06:45:21;;;;;;;10.57;5.78;;;;;;;15.45;89.88;95126.94;5015919;28;20217;-61
2022/10/23 06:47:49;;;;;;;6.80;5.13;;;;;;;15.55;90.34;95137.09;5033120;28;20193;-60
2022/10/23 06:50:14;;;;;;;6.93;4.68;;;;;;;15.66;90.52;95139.41;5032716;28;20210;-62
2022/10/23 06:52:40;;;;;;;12.68;5.20;;;;;;;15.76;90.46;95152.94;5032723;28;20205;-61
2022/10/23 06:55:06;;;;;;;8.52;5.00;;;;;;;15.82;90.71;95157.47;5016022;28;20591;-62
2022/10/23 06:57:32;;;;;;;13.50;5.30;;;;;;;15.86;90.84;95164.72;5034023;28;20686;-60
2022/10/23 06:59:58;;;;;;;11.20;4.85;;;;;;;15.98;90.31;95170.41;5036108;28;20304;-61
2022/10/23 07:02:24;;;;;;;10.18;4.60;;;;;;;15.94;90.11;95161.41;5033040;28;20665;-63
2022/10/23 07:04:49;;;;;;;11.57;5.68;;;;;;;15.97;90.42;95166.25;5032163;28;20216;-61
2022/10/23 07:07:15;;;;;;;10.65;5.45;;;;;;;16.06;90.36;95170.47;5032552;28;20690;-64
2022/10/23 07:09:40;;;;;;;8.60;4.80;;;;;;;16.14;88.78;95178.22;5032633;28;20202;-62
2022/10/23 07:12:06;;;;;;;9.27;5.30;;;;;;;16.19;88.59;95190.59;5032445;28;20225;-59
2022/10/23 07:14:31;;;;;;;17.35;5.43;;;;;;;16.30;87.90;95196.28;5032047;28;20229;-62
2022/10/23 07:16:57;;;;;;;9.27;5.10;;;;;;;16.35;87.29;95212.03;5032112;28;20210;-60
2022/10/23 07:19:23;;;;;;;12.98;5.15;;;;;;;16.41;86.71;95228.59;5032228;28;20593;-63
2022/10/23 07:21:49;;;;;;;9.90;4.95;;;;;;;16.44;86.45;95230.88;5031961;28;20248;-63
2022/10/23 07:24:15;;;;;;;10.88;5.45;;;;;;;16.53;86.26;95233.34;5032193;28;20240;-65
2022/10/23 07:26:40;;;;;;;7.63;4.63;;;;;;;16.60;86.60;95249.75;5031891;28;20194;-65
2022/10/23 07:29:06;;;;;;;10.15;5.28;;;;;;;16.58;85.30;95263.72;5014235;28;20205;-61
2022/10/23 07:31:32;;;;;;;10.15;5.07;;;;;;;16.58;85.32;95267.06;5031699;28;20256;-63
2022/10/23 07:33:58;;;;;;;7.78;5.82;;;;;;;16.72;84.98;95269.06;5031449;28;20663;-61
2022/10/23 07:36:23;;;;;;;6.72;3.90;;;;;;;16.82;83.99;95283.56;5031819;28;20232;-60
2022/10/23 07:38:50;;;;;;;6.00;4.43;;;;;;;16.94;82.74;95313.19;5031552;28;20216;-59
2022/10/23 07:41:15;;;;;;;6.63;4.57;;;;;;;16.98;81.63;95314.50;5031669;28;20194;-61
2022/10/23 07:43:41;;;;;;;15.27;4.70;;;;;;;17.08;81.47;95310.03;5030739;28;20253;-60
2022/10/23 07:46:08;;;;;;;9.93;5.00;;;;;;;17.12;81.04;95314.72;5031516;28;20392;-60
2022/10/23 07:48:34;;;;;;;7.20;4.82;;;;;;;17.25;79.75;95345.94;5031644;28;20182;-59
2022/10/23 07:51:02;;;;;;;9.23;4.03;;;;;;;17.40;78.39;95357.28;5031464;28;20191;-63
2022/10/23 07:53:28;;;;;;;14.02;5.38;;;;;;;17.39;77.42;95367.72;5014549;28;20691;-62
2022/10/23 07:55:55;;;;;;;6.13;4.78;;;;;;;17.47;76.86;95371.09;5031748;28;20193;-61
2022/10/23 07:58:21;;;;;;;9.63;4.57;;;;;;;17.68;75.88;95388.75;5031525;28;20189;-60
2022/10/23 08:00:54;;;;;;;6.10;4.47;;;;;;;17.60;75.13;95393.84;5031492;28;20208;-61
2022/10/23 08:03:20;;;;;;;10.23;4.70;;;;;;;17.87;74.71;95426.28;5031378;28;20189;-63
2022/10/23 08:05:45;;;;;;;7.53;4.15;;;;;;;17.94;73.57;95445.28;5030902;28;20206;-64
2022/10/23 08:08:11;;;;;;;6.97;3.92;;;;;;;17.91;72.97;95446.41;5030160;28;20186;-60
2022/10/23 08:10:36;;;;;;;8.48;4.05;;;;;;;17.98;73.52;95434.53;5031063;28;20354;-60
2022/10/23 08:13:01;;;;;;;9.85;4.47;;;;;;;18.11;71.89;95459.81;5030923;28;20626;-61
2022/10/23 08:15:27;;;;;;;6.22;3.65;;;;;;;18.17;72.59;95443.75;5031111;28;20258;-61
2022/10/23 08:17:52;;;;;;;4.68;3.75;;;;;;;18.21;72.20;95440.72;5031749;28;20197;-60
2022/10/23 08:20:18;;;;;;;7.50;3.80;;;;;;;18.32;72.39;95442.97;5030937;28;20281;-61
2022/10/23 08:22:43;;;;;;;8.73;4.15;;;;;;;18.48;71.72;95456.91;5031288;28;20197;-61
2022/10/23 08:25:09;;;;;;;6.90;3.60;;;;;;;18.60;71.23;95471.91;5030842;28;20301;-61
2022/10/23 08:27:35;;;;;;;8.88;4.40;;;;;;;18.82;71.06;95465.31;5030830;28;20281;-62
2022/10/23 08:30:00;;;;;;;5.57;4.00;;;;;;;18.97;70.71;95467.09;5030623;28;20653;-61
2022/10/23 08:32:30;;;;;;;8.57;3.95;;;;;;;19.11;70.18;95481.91;5031170;28;20672;-63
2022/10/23 08:34:56;;;;;;;7.75;3.97;;;;;;;19.38;69.24;95509.19;5030112;28;20225;-62
2022/10/23 08:37:22;;;;;;;6.18;4.00;;;;;;;19.57;68.09;95532.06;5030826;28;20558;-64
2022/10/23 08:39:47;;;;;;;10.27;3.97;;;;;;;19.60;67.51;95526.56;5030950;28;20217;-60
2022/10/23 08:42:22;;;;;;;5.93;4.00;;;;;;;19.44;68.22;95510.28;5030758;28;20193;-60
2022/10/23 08:45:20;;;;;;;6.55;3.72;;;;;;;19.53;68.52;95504.97;5030551;28;20209;-58
2022/10/23 08:47:54;;;;;;;5.00;3.33;;;;;;;19.35;68.78;95478.56;5030516;28;20221;-61
2022/10/23 08:50:22;;;;;;;5.53;3.40;;;;;;;19.23;69.23;95472.06;5012754;28;20225;-61
2022/10/23 08:52:52;;;;;;;3.83;3.17;;;;;;;19.19;69.29;95453.56;5030484;28;20236;-61
2022/10/23 08:55:34;;;;;;;8.25;3.45;;;;;;;19.11;69.92;95445.81;5031131;28;20597;-61
2022/10/23 08:58:17;;;;;;;5.47;3.22;;;;;;;19.33;69.41;95466.78;5030456;28;20652;-62
2022/10/23 09:00:45;;;;;;;5.03;3.38;;;;;;;19.43;68.54;95483.72;5030422;28;20585;-60
2022/10/23 09:03:12;;;;;;;4.60;3.30;;;;;;;19.53;68.95;95473.22;5030476;28;20541;-64
2022/10/23 09:06:02;;;;;;;5.97;3.28;;;;;;;19.37;68.03;95489.53;5030349;28;20220;-59
2022/10/23 09:08:52;;;;;;;5.55;3.28;;;;;;;19.74;67.56;95500.09;5031010;28;20732;-62
2022/10/23 09:11:36;;;;;;;5.68;3.30;;;;;;;19.69;67.30;95504.97;5030593;28;20193;-63
2022/10/23 09:14:42;;;;;;;5.22;3.53;;;;;;;19.92;66.85;95526.50;5030804;28;20305;-60
2022/10/23 09:17:13;;;;;;;8.63;3.45;;;;;;;20.02;65.78;95537.44;5026523;28;20214;-62
2022/10/23 09:19:39;;;;;;;3.10;2.70;;;;;;;20.07;64.55;95565.34;5034245;28;20259;-60
2022/10/23 09:22:05;;;;;;;7.38;3.15;;;;;;;20.15;64.79;95561.94;5033702;28;20657;-63
2022/10/23 09:24:32;;;;;;;4.15;3.20;;;;;;;20.03;65.27;95536.50;5016059;28;20581;-60
2022/10/23 09:26:59;;;;;;;4.00;3.35;;;;;;;20.28;64.57;95539.03;5033584;28;20195;-60
2022/10/23 09:29:34;;;;;;;3.90;3.10;;;;;;;20.36;64.46;95551.91;5034136;28;20264;-61
2022/10/23 09:32:04;;;;;;;6.45;3.15;;;;;;;20.44;63.24;95572.53;5033594;28;20247;-61
2022/10/23 09:34:33;;;;;;;3.45;2.80;;;;;;;20.54;62.44;95573.16;5033302;28;20276;-62
2022/10/23 09:37:02;;;;;;;6.68;3.10;;;;;;;20.78;61.91;95585.97;5033584;28;20182;-64
2022/10/23 09:39:31;;;;;;;3.58;2.60;;;;;;;20.75;61.56;95588.88;5034412;28;20214;-63
2022/10/23 09:41:57;;;;;;;7.13;2.38;;;;;;;20.54;61.79;95578.31;5033913;28;20171;-59
2022/10/23 09:44:29;;;;;;;5.30;2.83;;;;;;;20.59;62.17;95550.19;5016493;28;20279;-63
2022/10/23 09:46:59;;;;;;;3.67;3.20;;;;;;;20.74;61.24;95577.75;5033301;28;20190;-64
2022/10/23 09:49:32;;;;;;;5.00;2.85;;;;;;;20.79;61.57;95577.22;5033478;28;20295;-61
2022/10/23 09:52:23;;;;;;;4.03;2.58;;;;;;;21.03;60.49;95595.19;5015719;28;20680;-60
2022/10/23 09:54:55;;;;;;;5.47;2.90;;;;;;;21.01;59.08;95614.44;5033502;28;20218;-64
2022/10/23 09:57:20;;;;;;;2.97;2.30;;;;;;;20.95;58.53;95641.75;5033057;28;20205;-64
2022/10/23 09:59:51;;;;;;;3.75;2.80;;;;;;;21.38;57.50;95656.75;5015104;28;20639;-63
2022/10/23 10:02:29;;;;;;;5.47;2.30;;;;;;;21.38;56.91;95671.47;5033193;28;20578;-61
2022/10/23 10:04:54;;;;;;;3.80;2.40;;;;;;;21.18;56.55;95670.28;5015390;28;20212;-64
2022/10/23 10:07:22;;;;;;;4.30;2.40;;;;;;;21.23;55.95;95668.03;5015473;28;20656;-60
2022/10/23 10:09:47;;;;;;;2.72;2.13;;;;;;;21.19;55.85;95671.91;5015390;28;20238;-61
2022/10/23 10:12:36;;;;;;;4.20;1.88;;;;;;;21.74;55.31;95662.97;5033240;28;20210;-60
2022/10/23 10:15:21;;;;;;;2.38;2.00;;;;;;;21.62;53.56;95716.13;5033092;28;20217;-61
2022/10/23 10:18:04;;;;;;;3.42;1.98;;;;;;;21.44;53.23;95704.44;5033411;28;20195;-60
2022/10/23 10:20:56;;;;;;;5.60;2.20;;;;;;;21.66;52.52;95730.34;5031711;28;20306;-62
2022/10/23 10:23:37;;;;;;;2.80;2.30;;;;;;;21.75;52.95;95695.66;5033185;28;20663;-63
2022/10/23 10:26:27;;;;;;;3.05;2.55;;;;;;;22.29;52.68;95701.56;5031417;28;20191;-62
2022/10/23 10:29:10;;;;;;;3.28;2.33;;;;;;;22.59;51.72;95715.41;5032870;28;20206;-60
2022/10/23 10:31:36;;;;;;;2.65;2.20;;;;;;;22.63;50.41;95755.56;5032483;28;20206;-60
2022/10/23 10:34:04;;;;;;;8.25;2.40;;;;;;;22.28;50.76;95738.03;5033358;28;20224;-60
2022/10/23 10:36:50;;;;;;;3.35;2.40;;;;;;;22.50;49.83;95752.75;5031563;28;20194;-60
2022/10/23 10:39:29;;;;;;;3.58;2.03;;;;;;;22.78;49.20;95756.41;5033823;28;20240;-60
2022/10/23 10:42:15;;;;;;;2.30;1.75;;;;;;;22.86;47.60;95803.00;5033457;28;20190;-62
2022/10/23 10:45:06;;;;;;;2.92;1.90;;;;;;;22.44;48.64;95764.59;5033708;28;20348;-64
2022/10/23 10:47:54;;;;;;;4.47;1.80;;;;;;;22.35;49.06;95750.13;5014717;28;20186;-63
2022/10/23 10:50:28;;;;;;;2.08;1.85;;;;;;;22.25;47.80;95785.81;5032179;28;20233;-63
2022/10/23 10:53:09;;;;;;;4.30;1.85;;;;;;;22.24;47.71;95767.88;4998038;28;20186;-65
2022/10/23 10:55:41;;;;;;;2.63;1.90;;;;;;;22.58;47.97;95773.44;5032772;28;20284;-63
2022/10/23 10:58:09;;;;;;;3.30;1.60;;;;;;;22.94;48.13;95756.22;5032467;28;20178;-64
2022/10/23 11:00:35;;;;;;;6.93;1.80;;;;;;;23.04;47.70;95763.75;5032179;28;20243;-63
2022/10/23 11:03:30;;;;;;;4.10;2.17;;;;;;;22.61;47.10;95780.84;5032015;28;20605;-63
2022/10/23 11:05:59;;;;;;;7.25;1.75;;;;;;;22.54;48.11;95721.09;5011902;28;20202;-60
2022/10/23 11:08:33;;;;;;;4.00;1.90;;;;;;;22.93;47.84;95738.22;5032302;28;20201;-61
2022/10/23 11:11:08;;;;;;;3.47;1.92;;;;;;;23.07;48.08;95722.66;5032229;28;20205;-59
2022/10/23 11:13:36;;;;;;;3.15;1.75;;;;;;;23.16;48.06;95713.81;5032463;28;20205;-60
2022/10/23 11:16:28;;;;;;;2.65;2.15;;;;;;;22.84;48.07;95701.22;5032403;28;20194;-64
2022/10/23 11:19:00;;;;;;;3.63;1.88;;;;;;;22.65;47.97;95699.16;5031987;28;20229;-63
2022/10/23 11:21:31;;;;;;;2.65;2.40;;;;;;;22.56;47.99;95702.78;5031797;28;20393;-63
2022/10/23 11:24:17;;;;;;;3.50;2.13;;;;;;;22.72;48.41;95661.16;5015149;28;20217;-62
2022/10/23 11:27:20;;;;;;;3.22;2.05;;;;;;;22.78;47.46;95714.91;5014434;28;20839;-63
2022/10/23 11:30:27;;;;;;;3.08;2.25;;;;;;;22.76;47.39;95706.50;5032067;28;20236;-60
2022/10/23 11:33:20;;;;;;;2.20;2.00;;;;;;;22.69;46.97;95708.19;4970618;28;20698;-62
2022/10/23 11:35:51;;;;;;;2.30;2.10;;;;;;;22.81;47.13;95687.78;4970620;28;20255;-59
2022/10/23 11:38:18;;;;;;;3.03;2.33;;;;;;;23.08;48.15;95643.03;5012354;28;20299;-60
2022/10/23 11:40:47;;;;;;;4.22;2.17;;;;;;;22.86;46.88;95688.06;5031305;28;20691;-59